sensor_id;sensor_type;location;lat;lon;timestamp;P1;durP1;ratioP1;P2;durP2;ratioP2
79755;SDS011;69239;50.678;12.280;2024-02-28T00:01:12;11.95;;;6.05;;
79755;SDS011;69239;50.678;12.280;2024-02-28T00:03:38;8.97;;;5.67;;
79755;SDS011;69239;50.678;12.280;2024-02-28T00:06:03;12.38;;;6.93;;
79755;SDS011;69239;50.678;12.280;2024-02-28T00:08:28;13.30;;;6.97;;
79755;SDS011;69239;50.678;12.280;2024-02-28T00:10:54;11.03;;;5.97;;
79755;SDS011;69239;50.678;12.280;2024-02-28T00:13:19;11.70;;;6.90;;
79755;SDS011;69239;50.678;12.280;2024-02-28T00:15:46;13.70;;;7.18;;
79755;SDS011;69239;50.678;12.280;2024-02-28T00:18:12;12.93;;;6.73;;
79755;SDS011;69239;50.678;12.280;2024-02-28T00:20:37;11.33;;;6.13;;
79755;SDS011;69239;50.678;12.280;2024-02-28T00:23:02;10.13;;;5.87;;
79755;SDS011;69239;50.678;12.280;2024-02-28T00:25:27;13.18;;;6.80;;
79755;SDS011;69239;50.678;12.280;2024-02-28T00:27:53;13.83;;;7.50;;
79755;SDS011;69239;50.678;12.280;2024-02-28T00:30:18;14.60;;;6.30;;
79755;SDS011;69239;50.678;12.280;2024-02-28T00:32:43;15.87;;;7.77;;
79755;SDS011;69239;50.678;12.280;2024-02-28T00:35:08;11.43;;;6.77;;
79755;SDS011;69239;50.678;12.280;2024-02-28T00:37:35;12.93;;;6.75;;
79755;SDS011;69239;50.678;12.280;2024-02-28T00:40:00;15.43;;;7.67;;
79755;SDS011;69239;50.678;12.280;2024-02-28T00:42:26;14.77;;;7.28;;
79755;SDS011;69239;50.678;12.280;2024-02-28T00:44:52;17.33;;;7.53;;
79755;SDS011;69239;50.678;12.280;2024-02-28T00:47:17;12.40;;;6.97;;
79755;SDS011;69239;50.678;12.280;2024-02-28T00:49:43;15.05;;;7.65;;
79755;SDS011;69239;50.678;12.280;2024-02-28T00:52:08;14.85;;;7.32;;
79755;SDS011;69239;50.678;12.280;2024-02-28T00:54:33;12.97;;;7.80;;
79755;SDS011;69239;50.678;12.280;2024-02-28T00:56:58;13.83;;;7.37;;
79755;SDS011;69239;50.678;12.280;2024-02-28T00:59:24;13.60;;;7.80;;
79755;SDS011;69239;50.678;12.280;2024-02-28T01:01:50;17.23;;;7.82;;
79755;SDS011;69239;50.678;12.280;2024-02-28T01:04:15;15.57;;;7.60;;
79755;SDS011;69239;50.678;12.280;2024-02-28T01:06:40;16.02;;;8.88;;
79755;SDS011;69239;50.678;12.280;2024-02-28T01:09:06;13.63;;;7.90;;
79755;SDS011;69239;50.678;12.280;2024-02-28T01:11:31;15.13;;;7.90;;
79755;SDS011;69239;50.678;12.280;2024-02-28T01:13:57;16.33;;;8.38;;
79755;SDS011;69239;50.678;12.280;2024-02-28T01:16:23;17.40;;;8.90;;
79755;SDS011;69239;50.678;12.280;2024-02-28T01:18:50;19.02;;;8.73;;
79755;SDS011;69239;50.678;12.280;2024-02-28T01:21:15;17.07;;;8.63;;
79755;SDS011;69239;50.678;12.280;2024-02-28T01:23:40;17.70;;;8.83;;
79755;SDS011;69239;50.678;12.280;2024-02-28T01:26:06;19.53;;;8.57;;
79755;SDS011;69239;50.678;12.280;2024-02-28T01:28:31;17.57;;;8.67;;
79755;SDS011;69239;50.678;12.280;2024-02-28T01:30:56;14.75;;;8.00;;
79755;SDS011;69239;50.678;12.280;2024-02-28T01:33:22;16.73;;;8.25;;
79755;SDS011;69239;50.678;12.280;2024-02-28T01:35:47;14.13;;;8.13;;
79755;SDS011;69239;50.678;12.280;2024-02-28T01:38:14;15.98;;;8.68;;
79755;SDS011;69239;50.678;12.280;2024-02-28T01:40:44;16.43;;;8.00;;
79755;SDS011;69239;50.678;12.280;2024-02-28T01:43:11;16.30;;;8.23;;
79755;SDS011;69239;50.678;12.280;2024-02-28T01:45:36;18.45;;;8.60;;
79755;SDS011;69239;50.678;12.280;2024-02-28T01:48:02;19.05;;;8.35;;
79755;SDS011;69239;50.678;12.280;2024-02-28T01:50:27;17.73;;;8.27;;
79755;SDS011;69239;50.678;12.280;2024-02-28T01:52:53;18.13;;;9.32;;
79755;SDS011;69239;50.678;12.280;2024-02-28T01:55:18;18.50;;;8.77;;
79755;SDS011;69239;50.678;12.280;2024-02-28T01:57:43;19.47;;;8.93;;
79755;SDS011;69239;50.678;12.280;2024-02-28T02:00:09;23.38;;;10.50;;
79755;SDS011;69239;50.678;12.280;2024-02-28T02:02:36;19.48;;;9.18;;
79755;SDS011;69239;50.678;12.280;2024-02-28T02:05:01;23.60;;;10.57;;
79755;SDS011;69239;50.678;12.280;2024-02-28T02:07:26;17.83;;;10.00;;
79755;SDS011;69239;50.678;12.280;2024-02-28T02:09:52;20.57;;;9.13;;
79755;SDS011;69239;50.678;12.280;2024-02-28T02:12:18;21.05;;;10.07;;
79755;SDS011;69239;50.678;12.280;2024-02-28T02:14:49;20.77;;;9.27;;
79755;SDS011;69239;50.678;12.280;2024-02-28T02:17:15;23.90;;;10.27;;
79755;SDS011;69239;50.678;12.280;2024-02-28T02:19:40;19.43;;;9.30;;
79755;SDS011;69239;50.678;12.280;2024-02-28T02:22:05;19.87;;;9.70;;
79755;SDS011;69239;50.678;12.280;2024-02-28T02:24:33;18.35;;;9.32;;
79755;SDS011;69239;50.678;12.280;2024-02-28T02:26:58;21.08;;;10.60;;
79755;SDS011;69239;50.678;12.280;2024-02-28T02:29:24;22.63;;;10.13;;
79755;SDS011;69239;50.678;12.280;2024-02-28T02:31:49;20.63;;;10.47;;
79755;SDS011;69239;50.678;12.280;2024-02-28T02:34:14;17.73;;;10.03;;
79755;SDS011;69239;50.678;12.280;2024-02-28T02:36:39;20.17;;;10.17;;
79755;SDS011;69239;50.678;12.280;2024-02-28T02:39:05;26.27;;;11.93;;
79755;SDS011;69239;50.678;12.280;2024-02-28T02:41:32;25.70;;;11.55;;
79755;SDS011;69239;50.678;12.280;2024-02-28T02:43:58;27.93;;;11.67;;
79755;SDS011;69239;50.678;12.280;2024-02-28T02:46:23;23.93;;;11.00;;
79755;SDS011;69239;50.678;12.280;2024-02-28T02:48:48;27.67;;;11.87;;
79755;SDS011;69239;50.678;12.280;2024-02-28T02:51:13;31.77;;;12.30;;
79755;SDS011;69239;50.678;12.280;2024-02-28T02:53:39;26.63;;;12.15;;
79755;SDS011;69239;50.678;12.280;2024-02-28T02:56:04;24.33;;;11.20;;
79755;SDS011;69239;50.678;12.280;2024-02-28T02:58:30;25.65;;;11.70;;
79755;SDS011;69239;50.678;12.280;2024-02-28T03:00:55;23.20;;;10.50;;
79755;SDS011;69239;50.678;12.280;2024-02-28T03:03:22;30.33;;;12.70;;
79755;SDS011;69239;50.678;12.280;2024-02-28T03:05:47;27.25;;;11.90;;
79755;SDS011;69239;50.678;12.280;2024-02-28T03:08:12;25.87;;;12.17;;
79755;SDS011;69239;50.678;12.280;2024-02-28T03:10:38;32.37;;;11.37;;
79755;SDS011;69239;50.678;12.280;2024-02-28T03:13:04;25.17;;;11.52;;
79755;SDS011;69239;50.678;12.280;2024-02-28T03:15:31;28.00;;;12.07;;
79755;SDS011;69239;50.678;12.280;2024-02-28T03:17:56;23.63;;;11.20;;
79755;SDS011;69239;50.678;12.280;2024-02-28T03:20:21;28.20;;;11.40;;
79755;SDS011;69239;50.678;12.280;2024-02-28T03:22:47;25.50;;;9.77;;
79755;SDS011;69239;50.678;12.280;2024-02-28T03:25:12;25.33;;;10.67;;
79755;SDS011;69239;50.678;12.280;2024-02-28T03:27:37;22.20;;;10.33;;
79755;SDS011;69239;50.678;12.280;2024-02-28T03:30:03;23.23;;;11.53;;
79755;SDS011;69239;50.678;12.280;2024-02-28T03:32:28;27.23;;;11.68;;
79755;SDS011;69239;50.678;12.280;2024-02-28T03:34:54;22.38;;;10.73;;
79755;SDS011;69239;50.678;12.280;2024-02-28T03:37:20;23.43;;;10.53;;
79755;SDS011;69239;50.678;12.280;2024-02-28T03:39:46;23.92;;;11.20;;
79755;SDS011;69239;50.678;12.280;2024-02-28T03:42:11;22.53;;;11.17;;
79755;SDS011;69239;50.678;12.280;2024-02-28T03:44:36;24.67;;;10.50;;
79755;SDS011;69239;50.678;12.280;2024-02-28T03:47:02;24.80;;;11.70;;
79755;SDS011;69239;50.678;12.280;2024-02-28T03:49:27;23.25;;;10.57;;
79755;SDS011;69239;50.678;12.280;2024-02-28T03:51:52;33.43;;;12.93;;
79755;SDS011;69239;50.678;12.280;2024-02-28T03:54:18;21.97;;;10.13;;
79755;SDS011;69239;50.678;12.280;2024-02-28T03:56:43;28.87;;;11.33;;
79755;SDS011;69239;50.678;12.280;2024-02-28T03:59:08;25.67;;;11.57;;
79755;SDS011;69239;50.678;12.280;2024-02-28T04:01:33;26.33;;;11.63;;
79755;SDS011;69239;50.678;12.280;2024-02-28T04:03:59;25.87;;;11.57;;
79755;SDS011;69239;50.678;12.280;2024-02-28T04:06:24;27.88;;;11.57;;
79755;SDS011;69239;50.678;12.280;2024-02-28T04:08:50;30.08;;;11.73;;
79755;SDS011;69239;50.678;12.280;2024-02-28T04:11:15;33.47;;;12.80;;
79755;SDS011;69239;50.678;12.280;2024-02-28T04:13:40;34.57;;;12.30;;
79755;SDS011;69239;50.678;12.280;2024-02-28T04:16:07;27.57;;;12.70;;
79755;SDS011;69239;50.678;12.280;2024-02-28T04:18:35;27.73;;;11.18;;
79755;SDS011;69239;50.678;12.280;2024-02-28T04:21:01;27.90;;;11.77;;
79755;SDS011;69239;50.678;12.280;2024-02-28T04:23:26;35.83;;;13.23;;
79755;SDS011;69239;50.678;12.280;2024-02-28T04:25:51;35.10;;;14.10;;
79755;SDS011;69239;50.678;12.280;2024-02-28T04:28:16;27.35;;;12.27;;
79755;SDS011;69239;50.678;12.280;2024-02-28T04:30:42;28.93;;;12.63;;
79755;SDS011;69239;50.678;12.280;2024-02-28T04:33:07;34.38;;;13.95;;
79755;SDS011;69239;50.678;12.280;2024-02-28T04:35:34;33.33;;;13.93;;
79755;SDS011;69239;50.678;12.280;2024-02-28T04:37:59;38.22;;;12.93;;
79755;SDS011;69239;50.678;12.280;2024-02-28T04:40:25;25.20;;;11.57;;
79755;SDS011;69239;50.678;12.280;2024-02-28T04:42:53;29.25;;;11.73;;
79755;SDS011;69239;50.678;12.280;2024-02-28T04:45:18;34.23;;;13.10;;
79755;SDS011;69239;50.678;12.280;2024-02-28T04:47:43;31.23;;;11.70;;
79755;SDS011;69239;50.678;12.280;2024-02-28T04:50:09;30.98;;;12.82;;
79755;SDS011;69239;50.678;12.280;2024-02-28T04:52:35;31.90;;;12.60;;
79755;SDS011;69239;50.678;12.280;2024-02-28T04:55:00;35.63;;;13.97;;
79755;SDS011;69239;50.678;12.280;2024-02-28T04:57:25;34.72;;;13.13;;
79755;SDS011;69239;50.678;12.280;2024-02-28T04:59:51;32.65;;;12.85;;
79755;SDS011;69239;50.678;12.280;2024-02-28T05:02:17;36.35;;;12.82;;
79755;SDS011;69239;50.678;12.280;2024-02-28T05:04:42;32.00;;;12.77;;
79755;SDS011;69239;50.678;12.280;2024-02-28T05:07:07;35.05;;;12.55;;
79755;SDS011;69239;50.678;12.280;2024-02-28T05:09:33;28.97;;;11.40;;
79755;SDS011;69239;50.678;12.280;2024-02-28T05:11:58;32.80;;;12.70;;
79755;SDS011;69239;50.678;12.280;2024-02-28T05:14:25;31.75;;;13.23;;
79755;SDS011;69239;50.678;12.280;2024-02-28T05:16:50;33.70;;;13.00;;
79755;SDS011;69239;50.678;12.280;2024-02-28T05:19:16;31.33;;;10.93;;
79755;SDS011;69239;50.678;12.280;2024-02-28T05:21:44;35.85;;;13.98;;
79755;SDS011;69239;50.678;12.280;2024-02-28T05:24:10;39.03;;;14.45;;
79755;SDS011;69239;50.678;12.280;2024-02-28T05:26:37;42.30;;;13.10;;
79755;SDS011;69239;50.678;12.280;2024-02-28T05:29:03;24.10;;;9.48;;
79755;SDS011;69239;50.678;12.280;2024-02-28T05:31:30;34.83;;;14.35;;
79755;SDS011;69239;50.678;12.280;2024-02-28T05:33:59;36.60;;;13.32;;
79755;SDS011;69239;50.678;12.280;2024-02-28T05:36:25;42.00;;;13.60;;
79755;SDS011;69239;50.678;12.280;2024-02-28T05:38:53;39.35;;;14.25;;
79755;SDS011;69239;50.678;12.280;2024-02-28T05:41:20;31.27;;;12.98;;
79755;SDS011;69239;50.678;12.280;2024-02-28T05:43:46;31.33;;;12.50;;
79755;SDS011;69239;50.678;12.280;2024-02-28T05:46:12;26.80;;;12.23;;
79755;SDS011;69239;50.678;12.280;2024-02-28T05:48:37;34.50;;;14.20;;
79755;SDS011;69239;50.678;12.280;2024-02-28T05:51:03;31.40;;;12.57;;
79755;SDS011;69239;50.678;12.280;2024-02-28T05:53:29;33.67;;;14.65;;
79755;SDS011;69239;50.678;12.280;2024-02-28T05:56:00;40.20;;;15.02;;
79755;SDS011;69239;50.678;12.280;2024-02-28T05:58:25;32.33;;;14.17;;
79755;SDS011;69239;50.678;12.280;2024-02-28T06:00:51;32.53;;;14.17;;
79755;SDS011;69239;50.678;12.280;2024-02-28T06:03:16;28.95;;;12.43;;
79755;SDS011;69239;50.678;12.280;2024-02-28T06:05:42;26.98;;;11.73;;
79755;SDS011;69239;50.678;12.280;2024-02-28T06:08:07;27.75;;;11.30;;
79755;SDS011;69239;50.678;12.280;2024-02-28T06:10:32;26.73;;;12.13;;
79755;SDS011;69239;50.678;12.280;2024-02-28T06:12:58;27.87;;;12.17;;
79755;SDS011;69239;50.678;12.280;2024-02-28T06:15:25;23.55;;;11.48;;
79755;SDS011;69239;50.678;12.280;2024-02-28T06:17:57;28.70;;;12.18;;
79755;SDS011;69239;50.678;12.280;2024-02-28T06:20:24;26.63;;;10.43;;
79755;SDS011;69239;50.678;12.280;2024-02-28T06:22:50;26.50;;;11.30;;
79755;SDS011;69239;50.678;12.280;2024-02-28T06:25:15;25.77;;;11.17;;
79755;SDS011;69239;50.678;12.280;2024-02-28T06:27:46;29.52;;;12.00;;
79755;SDS011;69239;50.678;12.280;2024-02-28T06:30:11;28.17;;;11.48;;
79755;SDS011;69239;50.678;12.280;2024-02-28T06:32:40;25.52;;;10.43;;
79755;SDS011;69239;50.678;12.280;2024-02-28T06:35:06;27.40;;;9.95;;
79755;SDS011;69239;50.678;12.280;2024-02-28T06:37:32;25.35;;;11.70;;
79755;SDS011;69239;50.678;12.280;2024-02-28T06:39:57;28.10;;;10.98;;
79755;SDS011;69239;50.678;12.280;2024-02-28T06:42:24;30.77;;;12.68;;
79755;SDS011;69239;50.678;12.280;2024-02-28T06:44:50;23.10;;;10.82;;
79755;SDS011;69239;50.678;12.280;2024-02-28T06:47:18;36.83;;;11.88;;
79755;SDS011;69239;50.678;12.280;2024-02-28T06:49:43;31.07;;;10.77;;
79755;SDS011;69239;50.678;12.280;2024-02-28T06:52:11;36.30;;;12.80;;
79755;SDS011;69239;50.678;12.280;2024-02-28T06:54:36;30.50;;;11.15;;
79755;SDS011;69239;50.678;12.280;2024-02-28T06:57:02;27.77;;;12.02;;
79755;SDS011;69239;50.678;12.280;2024-02-28T06:59:28;38.75;;;13.27;;
79755;SDS011;69239;50.678;12.280;2024-02-28T07:01:53;31.52;;;12.00;;
79755;SDS011;69239;50.678;12.280;2024-02-28T07:04:18;30.97;;;11.47;;
79755;SDS011;69239;50.678;12.280;2024-02-28T07:06:43;34.60;;;12.50;;
79755;SDS011;69239;50.678;12.280;2024-02-28T07:09:09;26.87;;;11.03;;
79755;SDS011;69239;50.678;12.280;2024-02-28T07:11:35;31.50;;;12.73;;
79755;SDS011;69239;50.678;12.280;2024-02-28T07:14:02;23.73;;;10.90;;
79755;SDS011;69239;50.678;12.280;2024-02-28T07:16:29;29.48;;;11.52;;
79755;SDS011;69239;50.678;12.280;2024-02-28T07:18:54;28.88;;;11.48;;
79755;SDS011;69239;50.678;12.280;2024-02-28T07:21:20;27.33;;;11.97;;
79755;SDS011;69239;50.678;12.280;2024-02-28T07:23:45;28.00;;;11.93;;
79755;SDS011;69239;50.678;12.280;2024-02-28T07:26:17;27.65;;;10.95;;
79755;SDS011;69239;50.678;12.280;2024-02-28T07:28:43;24.42;;;11.10;;
79755;SDS011;69239;50.678;12.280;2024-02-28T07:33:43;25.77;;;11.00;;
79755;SDS011;69239;50.678;12.280;2024-02-28T07:36:08;27.10;;;11.95;;
79755;SDS011;69239;50.678;12.280;2024-02-28T07:38:34;23.92;;;10.05;;
79755;SDS011;69239;50.678;12.280;2024-02-28T07:40:59;23.77;;;10.40;;
79755;SDS011;69239;50.678;12.280;2024-02-28T07:43:24;24.05;;;10.68;;
79755;SDS011;69239;50.678;12.280;2024-02-28T07:45:50;25.20;;;10.77;;
79755;SDS011;69239;50.678;12.280;2024-02-28T07:48:15;21.80;;;10.23;;
79755;SDS011;69239;50.678;12.280;2024-02-28T07:50:45;25.35;;;11.23;;
79755;SDS011;69239;50.678;12.280;2024-02-28T07:53:15;23.55;;;10.55;;
79755;SDS011;69239;50.678;12.280;2024-02-28T07:55:40;21.92;;;7.95;;
79755;SDS011;69239;50.678;12.280;2024-02-28T07:58:06;37.40;;;11.65;;
79755;SDS011;69239;50.678;12.280;2024-02-28T08:00:31;28.60;;;11.60;;
79755;SDS011;69239;50.678;12.280;2024-02-28T08:02:58;29.63;;;12.50;;
79755;SDS011;69239;50.678;12.280;2024-02-28T08:05:24;33.15;;;11.95;;
79755;SDS011;69239;50.678;12.280;2024-02-28T08:07:49;29.67;;;12.10;;
79755;SDS011;69239;50.678;12.280;2024-02-28T08:10:16;28.35;;;11.55;;
79755;SDS011;69239;50.678;12.280;2024-02-28T08:12:41;29.60;;;11.63;;
79755;SDS011;69239;50.678;12.280;2024-02-28T08:15:09;30.40;;;12.13;;
79755;SDS011;69239;50.678;12.280;2024-02-28T08:17:35;30.23;;;12.80;;
79755;SDS011;69239;50.678;12.280;2024-02-28T08:20:01;32.45;;;11.63;;
79755;SDS011;69239;50.678;12.280;2024-02-28T08:22:29;26.90;;;10.48;;
79755;SDS011;69239;50.678;12.280;2024-02-28T08:24:55;27.97;;;11.37;;
79755;SDS011;69239;50.678;12.280;2024-02-28T08:27:20;20.70;;;9.13;;
79755;SDS011;69239;50.678;12.280;2024-02-28T08:29:45;25.00;;;9.68;;
79755;SDS011;69239;50.678;12.280;2024-02-28T08:32:13;26.27;;;9.70;;
79755;SDS011;69239;50.678;12.280;2024-02-28T08:34:38;24.13;;;9.77;;
79755;SDS011;69239;50.678;12.280;2024-02-28T08:37:05;21.33;;;8.97;;
79755;SDS011;69239;50.678;12.280;2024-02-28T08:39:33;22.50;;;9.70;;
79755;SDS011;69239;50.678;12.280;2024-02-28T08:41:58;23.30;;;8.93;;
79755;SDS011;69239;50.678;12.280;2024-02-28T08:44:23;23.43;;;9.87;;
79755;SDS011;69239;50.678;12.280;2024-02-28T08:46:49;22.17;;;9.25;;
79755;SDS011;69239;50.678;12.280;2024-02-28T08:49:15;23.27;;;9.52;;
79755;SDS011;69239;50.678;12.280;2024-02-28T08:51:42;20.27;;;8.77;;
79755;SDS011;69239;50.678;12.280;2024-02-28T08:54:07;22.20;;;9.25;;
79755;SDS011;69239;50.678;12.280;2024-02-28T08:56:32;25.10;;;9.57;;
79755;SDS011;69239;50.678;12.280;2024-02-28T08:58:58;22.83;;;9.43;;
79755;SDS011;69239;50.678;12.280;2024-02-28T09:01:23;25.58;;;10.23;;
79755;SDS011;69239;50.678;12.280;2024-02-28T09:03:48;24.60;;;10.10;;
79755;SDS011;69239;50.678;12.280;2024-02-28T09:06:14;22.37;;;8.60;;
79755;SDS011;69239;50.678;12.280;2024-02-28T09:08:42;22.00;;;9.43;;
79755;SDS011;69239;50.678;12.280;2024-02-28T09:11:10;26.97;;;10.50;;
79755;SDS011;69239;50.678;12.280;2024-02-28T09:13:40;25.35;;;9.68;;
79755;SDS011;69239;50.678;12.280;2024-02-28T09:16:06;22.58;;;9.27;;
79755;SDS011;69239;50.678;12.280;2024-02-28T09:18:31;26.63;;;11.20;;
79755;SDS011;69239;50.678;12.280;2024-02-28T09:20:56;22.63;;;9.07;;
79755;SDS011;69239;50.678;12.280;2024-02-28T09:23:21;26.07;;;10.20;;
79755;SDS011;69239;50.678;12.280;2024-02-28T09:25:47;25.98;;;9.60;;
79755;SDS011;69239;50.678;12.280;2024-02-28T09:28:12;20.90;;;9.30;;
79755;SDS011;69239;50.678;12.280;2024-02-28T09:30:40;24.02;;;9.15;;
79755;SDS011;69239;50.678;12.280;2024-02-28T09:33:06;26.27;;;9.18;;
79755;SDS011;69239;50.678;12.280;2024-02-28T09:35:31;23.85;;;8.35;;
79755;SDS011;69239;50.678;12.280;2024-02-28T09:37:56;20.60;;;8.03;;
79755;SDS011;69239;50.678;12.280;2024-02-28T09:40:23;20.30;;;7.63;;
79755;SDS011;69239;50.678;12.280;2024-02-28T09:42:51;24.00;;;9.00;;
79755;SDS011;69239;50.678;12.280;2024-02-28T09:45:20;19.92;;;8.25;;
79755;SDS011;69239;50.678;12.280;2024-02-28T09:47:46;21.83;;;8.50;;
79755;SDS011;69239;50.678;12.280;2024-02-28T09:50:13;22.25;;;8.85;;
79755;SDS011;69239;50.678;12.280;2024-02-28T09:52:39;19.92;;;8.98;;
79755;SDS011;69239;50.678;12.280;2024-02-28T09:55:05;19.13;;;8.30;;
79755;SDS011;69239;50.678;12.280;2024-02-28T09:57:32;21.02;;;8.32;;
79755;SDS011;69239;50.678;12.280;2024-02-28T09:59:59;21.70;;;8.95;;
79755;SDS011;69239;50.678;12.280;2024-02-28T10:02:25;19.63;;;7.97;;
79755;SDS011;69239;50.678;12.280;2024-02-28T10:04:53;22.40;;;8.52;;
79755;SDS011;69239;50.678;12.280;2024-02-28T10:07:20;21.15;;;9.13;;
79755;SDS011;69239;50.678;12.280;2024-02-28T10:09:46;21.30;;;8.48;;
79755;SDS011;69239;50.678;12.280;2024-02-28T10:12:12;22.90;;;9.80;;
79755;SDS011;69239;50.678;12.280;2024-02-28T10:14:40;22.15;;;9.77;;
79755;SDS011;69239;50.678;12.280;2024-02-28T10:17:05;24.83;;;9.53;;
79755;SDS011;69239;50.678;12.280;2024-02-28T10:19:32;18.02;;;7.53;;
79755;SDS011;69239;50.678;12.280;2024-02-28T10:21:58;20.90;;;9.13;;
79755;SDS011;69239;50.678;12.280;2024-02-28T10:24:24;23.02;;;8.45;;
79755;SDS011;69239;50.678;12.280;2024-02-28T10:26:49;17.73;;;7.90;;
79755;SDS011;69239;50.678;12.280;2024-02-28T10:29:23;17.67;;;6.97;;
79755;SDS011;69239;50.678;12.280;2024-02-28T10:31:50;20.90;;;9.25;;
79755;SDS011;69239;50.678;12.280;2024-02-28T10:34:16;19.38;;;9.27;;
79755;SDS011;69239;50.678;12.280;2024-02-28T10:36:48;21.33;;;8.65;;
79755;SDS011;69239;50.678;12.280;2024-02-28T10:39:15;18.60;;;7.00;;
79755;SDS011;69239;50.678;12.280;2024-02-28T10:41:41;16.00;;;7.35;;
79755;SDS011;69239;50.678;12.280;2024-02-28T10:44:07;15.65;;;7.30;;
79755;SDS011;69239;50.678;12.280;2024-02-28T10:46:34;15.77;;;6.93;;
79755;SDS011;69239;50.678;12.280;2024-02-28T10:49:04;17.02;;;6.68;;
79755;SDS011;69239;50.678;12.280;2024-02-28T10:51:30;15.27;;;6.78;;
79755;SDS011;69239;50.678;12.280;2024-02-28T10:54:08;19.55;;;7.72;;
79755;SDS011;69239;50.678;12.280;2024-02-28T10:56:36;20.08;;;7.22;;
79755;SDS011;69239;50.678;12.280;2024-02-28T10:59:02;18.38;;;7.50;;
79755;SDS011;69239;50.678;12.280;2024-02-28T11:01:27;18.13;;;7.93;;
79755;SDS011;69239;50.678;12.280;2024-02-28T11:03:53;18.38;;;7.47;;
79755;SDS011;69239;50.678;12.280;2024-02-28T11:06:20;18.38;;;8.48;;
79755;SDS011;69239;50.678;12.280;2024-02-28T11:08:49;16.35;;;8.35;;
79755;SDS011;69239;50.678;12.280;2024-02-28T11:11:19;15.55;;;6.90;;
79755;SDS011;69239;50.678;12.280;2024-02-28T11:13:55;16.13;;;7.90;;
79755;SDS011;69239;50.678;12.280;2024-02-28T11:16:31;15.98;;;7.30;;
79755;SDS011;69239;50.678;12.280;2024-02-28T11:18:58;15.23;;;6.25;;
79755;SDS011;69239;50.678;12.280;2024-02-28T11:21:26;16.10;;;7.15;;
79755;SDS011;69239;50.678;12.280;2024-02-28T11:23:56;13.77;;;6.60;;
79755;SDS011;69239;50.678;12.280;2024-02-28T11:26:23;12.35;;;5.90;;
79755;SDS011;69239;50.678;12.280;2024-02-28T11:28:51;15.40;;;7.28;;
79755;SDS011;69239;50.678;12.280;2024-02-28T11:31:17;14.25;;;6.60;;
79755;SDS011;69239;50.678;12.280;2024-02-28T11:33:43;12.70;;;5.28;;
79755;SDS011;69239;50.678;12.280;2024-02-28T11:36:09;13.87;;;6.33;;
79755;SDS011;69239;50.678;12.280;2024-02-28T11:38:38;12.75;;;6.45;;
79755;SDS011;69239;50.678;12.280;2024-02-28T11:41:03;13.82;;;6.50;;
79755;SDS011;69239;50.678;12.280;2024-02-28T11:43:34;15.55;;;6.07;;
79755;SDS011;69239;50.678;12.280;2024-02-28T11:46:07;13.52;;;6.63;;
79755;SDS011;69239;50.678;12.280;2024-02-28T11:48:33;17.13;;;9.07;;
79755;SDS011;69239;50.678;12.280;2024-02-28T11:50:58;16.77;;;8.15;;
79755;SDS011;69239;50.678;12.280;2024-02-28T11:53:27;13.77;;;6.63;;
79755;SDS011;69239;50.678;12.280;2024-02-28T11:55:52;12.80;;;6.30;;
79755;SDS011;69239;50.678;12.280;2024-02-28T11:58:20;11.68;;;5.82;;
79755;SDS011;69239;50.678;12.280;2024-02-28T12:00:50;11.43;;;5.53;;
79755;SDS011;69239;50.678;12.280;2024-02-28T12:03:22;9.90;;;5.18;;
79755;SDS011;69239;50.678;12.280;2024-02-28T12:05:50;8.77;;;4.88;;
79755;SDS011;69239;50.678;12.280;2024-02-28T12:08:19;9.18;;;4.72;;
79755;SDS011;69239;50.678;12.280;2024-02-28T12:10:45;9.25;;;4.93;;
79755;SDS011;69239;50.678;12.280;2024-02-28T12:13:17;10.98;;;5.50;;
79755;SDS011;69239;50.678;12.280;2024-02-28T12:15:45;11.38;;;5.43;;
79755;SDS011;69239;50.678;12.280;2024-02-28T12:18:11;10.80;;;5.68;;
79755;SDS011;69239;50.678;12.280;2024-02-28T12:20:37;9.95;;;5.45;;
79755;SDS011;69239;50.678;12.280;2024-02-28T12:23:02;10.18;;;5.57;;
79755;SDS011;69239;50.678;12.280;2024-02-28T12:25:29;10.75;;;5.47;;
79755;SDS011;69239;50.678;12.280;2024-02-28T12:27:54;9.90;;;5.70;;
79755;SDS011;69239;50.678;12.280;2024-02-28T12:30:19;11.67;;;6.37;;
79755;SDS011;69239;50.678;12.280;2024-02-28T12:32:46;11.65;;;6.75;;
79755;SDS011;69239;50.678;12.280;2024-02-28T12:35:13;10.73;;;6.53;;
79755;SDS011;69239;50.678;12.280;2024-02-28T12:37:38;9.57;;;5.63;;
79755;SDS011;69239;50.678;12.280;2024-02-28T12:40:04;9.38;;;6.30;;
79755;SDS011;69239;50.678;12.280;2024-02-28T12:42:31;9.02;;;5.43;;
79755;SDS011;69239;50.678;12.280;2024-02-28T12:44:56;9.55;;;5.97;;
79755;SDS011;69239;50.678;12.280;2024-02-28T12:47:23;10.45;;;6.07;;
79755;SDS011;69239;50.678;12.280;2024-02-28T12:49:49;8.43;;;5.60;;
79755;SDS011;69239;50.678;12.280;2024-02-28T12:52:16;11.47;;;7.20;;
79755;SDS011;69239;50.678;12.280;2024-02-28T12:54:43;10.90;;;7.18;;
79755;SDS011;69239;50.678;12.280;2024-02-28T12:57:08;9.45;;;5.65;;
79755;SDS011;69239;50.678;12.280;2024-02-28T12:59:33;11.70;;;7.17;;
79755;SDS011;69239;50.678;12.280;2024-02-28T13:01:59;10.20;;;6.30;;
79755;SDS011;69239;50.678;12.280;2024-02-28T13:04:24;9.57;;;6.40;;
79755;SDS011;69239;50.678;12.280;2024-02-28T13:06:51;10.05;;;6.82;;
79755;SDS011;69239;50.678;12.280;2024-02-28T13:09:18;10.68;;;6.88;;
79755;SDS011;69239;50.678;12.280;2024-02-28T13:11:43;11.18;;;7.07;;
79755;SDS011;69239;50.678;12.280;2024-02-28T13:14:08;10.87;;;7.53;;
79755;SDS011;69239;50.678;12.280;2024-02-28T13:16:34;9.05;;;6.00;;
79755;SDS011;69239;50.678;12.280;2024-02-28T13:18:59;9.93;;;5.93;;
79755;SDS011;69239;50.678;12.280;2024-02-28T13:21:24;11.03;;;6.23;;
79755;SDS011;69239;50.678;12.280;2024-02-28T13:23:49;9.67;;;5.97;;
79755;SDS011;69239;50.678;12.280;2024-02-28T13:26:20;6.73;;;4.73;;
79755;SDS011;69239;50.678;12.280;2024-02-28T13:28:45;7.43;;;5.13;;
79755;SDS011;69239;50.678;12.280;2024-02-28T13:31:11;7.35;;;4.95;;
79755;SDS011;69239;50.678;12.280;2024-02-28T13:33:38;8.27;;;5.78;;
79755;SDS011;69239;50.678;12.280;2024-02-28T13:36:03;8.45;;;5.53;;
79755;SDS011;69239;50.678;12.280;2024-02-28T13:38:29;8.57;;;5.07;;
79755;SDS011;69239;50.678;12.280;2024-02-28T13:40:55;8.80;;;5.63;;
79755;SDS011;69239;50.678;12.280;2024-02-28T13:43:20;8.68;;;5.88;;
79755;SDS011;69239;50.678;12.280;2024-02-28T13:45:46;9.33;;;5.30;;
79755;SDS011;69239;50.678;12.280;2024-02-28T13:50:49;8.93;;;5.00;;
79755;SDS011;69239;50.678;12.280;2024-02-28T13:53:15;10.32;;;5.93;;
79755;SDS011;69239;50.678;12.280;2024-02-28T13:55:44;10.15;;;6.05;;
79755;SDS011;69239;50.678;12.280;2024-02-28T13:58:13;10.45;;;6.05;;
79755;SDS011;69239;50.678;12.280;2024-02-28T14:00:38;11.45;;;6.70;;
79755;SDS011;69239;50.678;12.280;2024-02-28T14:03:05;10.13;;;6.00;;
79755;SDS011;69239;50.678;12.280;2024-02-28T14:05:34;12.10;;;6.43;;
79755;SDS011;69239;50.678;12.280;2024-02-28T14:07:59;8.65;;;6.30;;
79755;SDS011;69239;50.678;12.280;2024-02-28T14:10:25;7.87;;;5.40;;
79755;SDS011;69239;50.678;12.280;2024-02-28T14:12:50;10.63;;;6.03;;
79755;SDS011;69239;50.678;12.280;2024-02-28T14:15:19;7.57;;;5.38;;